In Rescue
 
Open Full Screen Window  High Contrast Mode
Wind Gusting 15 knots
11
April 20, 2024 9:54 AM EDT
Weather Information
Wind Direction
  280 °
Wind Speed
  11 kt (13 mph)
Wind Gust
  15 kt (17 mph)
Altimeter
30.08 in
Visibility
10 SM
Temperature
03° C
37° F
Dewpoint
-06° C
21° F
Humidity
52%
Sky Condition
Overcast @ 5,000 ft
Scattered @ 4,600 ft
Scattered @ 3,500 ft
VFR

METAR KRQB 201354Z AUTO 28011G15KT 10SM SCT035 SCT046 OVC050 03/M06 A3008 RMK AO2 T00301058

FAA Disclaimer: The data displayed is for advisory purposes only and is not to be used for flight planning or operations.